createdAt,value
2024-02-02T00:04:16.854Z,-11.60
2024-02-02T00:09:21.156Z,-11.60
2024-02-02T00:14:26.948Z,-11.50
2024-02-02T00:19:30.440Z,-11.41
2024-02-02T00:24:33.597Z,-11.45
2024-02-02T00:29:39.813Z,-11.56
2024-02-02T00:34:43.077Z,-11.53
2024-02-02T00:40:05.852Z,-11.57
2024-02-02T00:45:09.250Z,-11.75
2024-02-02T00:50:12.892Z,-11.69
2024-02-02T00:55:16.155Z,-11.90
2024-02-02T01:00:20.867Z,-12.15
2024-02-02T01:05:24.148Z,-12.50
2024-02-02T01:10:28.045Z,-12.70
2024-02-02T01:15:30.785Z,-12.74
2024-02-02T01:20:54.263Z,-12.77
2024-02-02T01:25:57.950Z,-12.78
2024-02-02T01:31:00.960Z,-12.89
2024-02-02T01:36:04.071Z,-13.11
2024-02-02T01:41:08.012Z,-13.09
2024-02-02T01:46:11.011Z,-13.03
2024-02-02T01:51:14.134Z,-13.11
2024-02-02T01:56:18.493Z,-13.12
2024-02-02T02:01:21.452Z,-13.03
2024-02-02T02:06:25.297Z,-13.04
2024-02-02T02:11:28.936Z,-12.95
2024-02-02T02:16:31.959Z,-12.97
2024-02-02T02:21:34.726Z,-12.94
2024-02-02T02:26:38.068Z,-12.99
2024-02-02T02:31:41.016Z,-12.97
2024-02-02T02:37:02.643Z,-12.84
2024-02-02T02:42:07.316Z,-12.72
2024-02-02T02:47:11.711Z,-12.60
2024-02-02T02:52:14.589Z,-12.49
2024-02-02T02:57:17.935Z,-12.39
2024-02-02T03:02:21.087Z,-12.27
2024-02-02T03:07:24.339Z,-12.18
2024-02-02T03:12:28.338Z,-12.09
2024-02-02T03:17:31.340Z,-12.14
2024-02-02T03:22:52.602Z,-11.84
2024-02-02T03:27:56.514Z,-11.67
2024-02-02T03:32:59.349Z,-11.51
2024-02-02T03:38:20.986Z,-11.34
2024-02-02T03:43:24.248Z,-11.23
2024-02-02T03:48:27.026Z,-11.14
2024-02-02T03:53:29.781Z,-11.05
2024-02-02T03:58:33.249Z,-10.90
2024-02-02T04:03:36.873Z,-10.79
2024-02-02T04:08:43.322Z,-10.68
2024-02-02T04:13:47.213Z,-10.54
2024-02-02T04:18:51.980Z,-10.35
2024-02-02T04:23:54.886Z,-10.30
2024-02-02T04:28:59.588Z,-10.31
2024-02-02T04:34:03.041Z,-9.99
2024-02-02T04:39:06.566Z,-9.84
2024-02-02T04:44:12.544Z,-9.69
2024-02-02T04:49:15.560Z,-9.58
2024-02-02T04:54:18.790Z,-9.50
2024-02-02T04:59:22.651Z,-9.51
2024-02-02T05:04:25.591Z,-9.39
2024-02-02T05:09:29.586Z,-9.23
2024-02-02T05:14:34.628Z,-9.14
2024-02-02T05:19:37.498Z,-9.03
2024-02-02T05:24:45.395Z,-8.88
2024-02-02T05:29:51.183Z,-8.52
2024-02-02T05:34:54.493Z,-8.06
2024-02-02T05:39:57.930Z,-7.72
2024-02-02T05:45:19.992Z,-7.59
2024-02-02T05:50:22.785Z,-7.49
2024-02-02T05:55:47.547Z,-7.43
2024-02-02T06:00:50.893Z,-7.41
2024-02-02T06:05:53.710Z,-7.30
2024-02-02T06:10:57.232Z,-7.27
2024-02-02T06:16:00.281Z,-7.10
2024-02-02T06:21:03.735Z,-6.87
2024-02-02T06:26:08.723Z,-6.48
2024-02-02T06:31:11.642Z,-6.30
2024-02-02T06:36:14.421Z,-5.87
2024-02-02T06:41:19.101Z,-5.80
2024-02-02T06:46:22.533Z,-5.82
2024-02-02T06:51:25.439Z,-5.91
2024-02-02T06:56:40.617Z,-5.87
2024-02-02T07:01:43.760Z,-5.75
2024-02-02T07:06:48.622Z,-5.68
2024-02-02T07:12:00.605Z,-5.63
2024-02-02T07:17:04.623Z,-5.69
2024-02-02T07:22:33.006Z,-5.65
2024-02-02T07:28:00.919Z,-5.47
2024-02-02T07:33:33.935Z,-5.43
2024-02-02T07:38:53.959Z,-5.53
2024-02-02T07:44:01.213Z,-5.66
2024-02-02T07:49:05.637Z,-5.86
2024-02-02T07:54:08.612Z,-5.89
2024-02-02T07:59:12.244Z,-5.84
2024-02-02T08:04:15.336Z,-5.83
2024-02-02T08:09:36.683Z,-5.83
2024-02-02T08:14:41.929Z,-5.87
2024-02-02T08:19:45.420Z,-5.83
2024-02-02T08:24:49.659Z,-5.71
2024-02-02T08:29:52.366Z,-5.60
2024-02-02T08:34:55.163Z,-5.48
2024-02-02T08:39:59.103Z,-5.40
2024-02-02T08:45:02.454Z,-5.36
2024-02-02T08:50:07.807Z,-5.37
2024-02-02T08:55:41.547Z,-5.31
2024-02-02T09:00:44.640Z,-5.11
2024-02-02T09:05:52.902Z,-4.79
2024-02-02T09:10:59.915Z,-4.74
2024-02-02T09:16:03.169Z,-4.81
2024-02-02T09:21:07.371Z,-5.05
2024-02-02T09:26:30.852Z,-5.15
2024-02-02T09:31:52.262Z,-5.13
2024-02-02T09:36:55.120Z,-5.17
2024-02-02T09:42:28.593Z,-5.28
2024-02-02T09:47:37.517Z,-5.48
2024-02-02T09:53:06.158Z,-5.65
2024-02-02T09:58:35.052Z,-5.73
2024-02-02T10:03:47.996Z,-6.03
2024-02-02T10:09:02.948Z,-5.71
2024-02-02T10:14:37.372Z,-5.74
2024-02-02T10:19:47.998Z,-5.78
2024-02-02T10:25:21.457Z,-5.90
2024-02-02T10:31:14.959Z,-6.02
2024-02-02T10:36:29.217Z,-6.09
2024-02-02T10:41:55.334Z,-6.19
2024-02-02T10:47:23.233Z,-6.31
2024-02-02T10:53:08.961Z,-6.41
2024-02-02T10:58:50.778Z,-6.56
2024-02-02T11:04:04.429Z,-6.49
2024-02-02T11:09:35.846Z,-6.39
2024-02-02T11:14:41.207Z,-6.42
2024-02-02T11:20:16.598Z,-6.48
2024-02-02T11:25:32.143Z,-6.51
2024-02-02T11:30:51.379Z,-6.47
2024-02-02T11:36:33.802Z,-6.52
2024-02-02T11:41:38.212Z,-6.32
2024-02-02T11:46:41.983Z,-6.23
2024-02-02T11:52:02.754Z,-6.19
2024-02-02T11:57:09.849Z,-6.13
2024-02-02T12:02:18.463Z,-6.10
2024-02-02T12:07:39.682Z,-6.12
2024-02-02T12:13:10.546Z,-6.11
2024-02-02T12:18:13.490Z,-6.05
2024-02-02T12:23:35.067Z,-6.06
2024-02-02T12:28:42.535Z,-6.08
2024-02-02T12:34:03.912Z,-6.05
2024-02-02T12:39:09.740Z,-6.07
2024-02-02T12:44:13.537Z,-6.17
2024-02-02T12:49:16.436Z,-6.16
2024-02-02T12:54:19.709Z,-6.12
2024-02-02T12:59:44.451Z,-6.15
2024-02-02T13:04:55.556Z,-6.08
2024-02-02T13:10:08.165Z,-6.07
2024-02-02T13:15:13.698Z,-6.09
2024-02-02T13:20:20.899Z,-6.03
2024-02-02T13:25:27.426Z,-6.03
2024-02-02T13:30:34.633Z,-6.12
2024-02-02T13:35:41.407Z,-6.09
2024-02-02T13:40:48.529Z,-6.12
2024-02-02T13:45:53.837Z,-6.17
2024-02-02T13:51:06.432Z,-6.16
2024-02-02T13:56:14.065Z,-6.13
2024-02-02T14:01:20.008Z,-6.08
2024-02-02T14:06:26.531Z,-6.05
2024-02-02T14:11:33.967Z,-6.02
2024-02-02T14:16:38.931Z,-6.02
2024-02-02T14:21:43.639Z,-6.12
2024-02-02T14:26:54.925Z,-5.97
2024-02-02T14:32:02.265Z,-5.96
2024-02-02T14:37:22.133Z,-6.05
2024-02-02T14:42:29.474Z,-6.13
2024-02-02T14:47:34.410Z,-6.21
2024-02-02T14:52:57.195Z,-6.28
2024-02-02T14:58:01.873Z,-6.32
2024-02-02T15:03:24.338Z,-6.33
2024-02-02T15:08:27.125Z,-6.34
2024-02-02T15:13:32.265Z,-6.32
2024-02-02T15:18:35.685Z,-6.30
2024-02-02T15:23:39.090Z,-6.26
2024-02-02T15:28:43.252Z,-6.36
2024-02-02T15:33:46.545Z,-6.37
2024-02-02T15:39:06.617Z,-6.30
2024-02-02T15:44:15.221Z,-6.27
2024-02-02T15:49:36.886Z,-6.25
2024-02-02T15:54:41.507Z,-6.21
2024-02-02T15:59:45.532Z,-6.18
2024-02-02T16:04:48.966Z,-6.11
2024-02-02T16:09:53.012Z,-6.10
2024-02-02T16:14:59.015Z,-6.08
2024-02-02T16:20:01.891Z,-6.13
2024-02-02T16:25:09.484Z,-6.14
2024-02-02T16:30:14.076Z,-6.06
2024-02-02T16:35:16.916Z,-6.02
2024-02-02T16:40:31.579Z,-5.99
2024-02-02T16:45:35.594Z,-6.11
2024-02-02T16:50:39.681Z,-6.00
2024-02-02T16:55:43.455Z,-6.04
2024-02-02T17:00:46.744Z,-6.06
2024-02-02T17:05:49.837Z,-6.12
2024-02-02T17:10:55.331Z,-6.12
2024-02-02T17:16:02.903Z,-6.14
2024-02-02T17:21:28.147Z,-6.20
2024-02-02T17:26:33.046Z,-6.25
2024-02-02T17:31:36.840Z,-6.29
2024-02-02T17:36:58.355Z,-6.35
2024-02-02T17:42:01.966Z,-6.39
2024-02-02T17:47:23.643Z,-6.41
2024-02-02T17:52:26.564Z,-6.58
2024-02-02T17:57:34.744Z,-6.55
2024-02-02T18:02:37.390Z,-6.62
2024-02-02T18:07:47.182Z,-6.71
2024-02-02T18:12:52.286Z,-6.85
2024-02-02T18:18:14.428Z,-6.90
2024-02-02T18:28:25.076Z,-7.03
2024-02-02T18:33:28.187Z,-7.06
2024-02-02T18:38:32.126Z,-6.99
2024-02-02T18:43:36.290Z,-6.92
2024-02-02T18:48:40.575Z,-6.82
2024-02-02T18:53:43.605Z,-6.76
2024-02-02T18:59:06.176Z,-6.76
2024-02-02T19:04:29.877Z,-6.76
2024-02-02T19:09:52.360Z,-6.74
2024-02-02T19:14:59.141Z,-6.74
2024-02-02T19:20:02.096Z,-6.77
2024-02-02T19:25:26.217Z,-6.87
2024-02-02T19:30:29.237Z,-6.91
2024-02-02T19:35:31.994Z,-6.94
2024-02-02T19:40:53.576Z,-6.85
2024-02-02T19:45:56.232Z,-6.85
2024-02-02T19:50:58.943Z,-6.80
2024-02-02T19:56:05.282Z,-6.58
2024-02-02T20:01:15.596Z,-6.41
2024-02-02T20:06:19.798Z,-6.30
2024-02-02T20:11:26.766Z,-6.25
2024-02-02T20:16:29.768Z,-6.24
2024-02-02T20:21:33.526Z,-6.27
2024-02-02T20:26:37.250Z,-6.41
2024-02-02T20:31:43.981Z,-6.38
2024-02-02T20:36:46.771Z,-6.50
2024-02-02T20:41:50.197Z,-6.52
2024-02-02T20:46:53.069Z,-6.59
2024-02-02T20:51:56.042Z,-6.62
2024-02-02T20:57:00.496Z,-6.70
2024-02-02T21:02:03.606Z,-6.86
2024-02-02T21:07:09.748Z,-6.81
2024-02-02T21:12:13.423Z,-7.07
2024-02-02T21:17:16.206Z,-7.24
2024-02-02T21:22:19.590Z,-7.33
2024-02-02T21:27:22.865Z,-7.47
2024-02-02T21:32:26.261Z,-7.59
2024-02-02T21:37:29.009Z,-7.78
2024-02-02T21:42:33.111Z,-7.88
2024-02-02T21:47:37.200Z,-7.94
2024-02-02T21:52:41.152Z,-8.16
2024-02-02T21:57:44.746Z,-8.26
2024-02-02T22:02:47.615Z,-8.41
2024-02-02T22:07:50.386Z,-8.54
2024-02-02T22:12:54.181Z,-8.68
2024-02-02T22:17:58.163Z,-8.87
2024-02-02T22:23:01.474Z,-9.04
2024-02-02T22:28:08.397Z,-9.19
2024-02-02T22:33:11.442Z,-9.36
2024-02-02T22:38:14.499Z,-9.75
2024-02-02T22:43:19.358Z,-9.46
2024-02-02T22:48:22.320Z,-9.57
2024-02-02T22:53:25.117Z,-9.74
2024-02-02T22:58:29.387Z,-9.90
2024-02-02T23:03:33.628Z,-10.03
2024-02-02T23:08:36.661Z,-10.22
2024-02-02T23:13:40.619Z,-10.38
2024-02-02T23:19:02.185Z,-10.56
2024-02-02T23:24:05.516Z,-10.70
2024-02-02T23:29:09.702Z,-10.94
2024-02-02T23:34:31.317Z,-10.91
2024-02-02T23:39:35.165Z,-11.02
2024-02-02T23:44:39.108Z,-11.14
2024-02-02T23:50:00.658Z,-11.17
2024-02-02T23:55:04.195Z,-11.28
